Time;durP1;ratioP1;P1;durP2;ratioP2;P2;SDS_P1;SDS_P2;PMS_P1;PMS_P2;Temp;Humidity;BMP_temperature;BMP_pressure;BME280_temperature;BME280_humidity;BME280_pressure;Samples;Min_cycle;Max_cycle;Signal;HPM_P1;HPM_P2
2021/08/20 00:00:49;;;;;;;5.63;3.25;;;;;;;18.53;61.04;101169.56;5015822;28;20400;-70
2021/08/20 00:03:16;;;;;;;6.35;3.05;;;;;;;18.40;61.39;101171.56;5033983;28;20076;-62
2021/08/20 00:05:44;;;;;;;4.30;2.42;;;;;;;18.32;61.82;101174.50;5031925;28;20049;-62
2021/08/20 00:08:11;;;;;;;4.80;2.85;;;;;;;18.32;61.68;101168.91;5033563;28;20713;-69
2021/08/20 00:10:38;;;;;;;5.93;2.60;;;;;;;18.26;61.88;101171.13;5033398;28;20041;-68
2021/08/20 00:13:06;;;;;;;5.70;2.90;;;;;;;18.25;62.00;101166.75;5040559;28;20045;-61
2021/08/20 00:15:33;;;;;;;5.20;2.55;;;;;;;18.24;61.60;101179.03;5051678;28;20053;-69
2021/08/20 00:18:00;;;;;;;4.85;2.92;;;;;;;18.22;61.86;101167.41;5053452;28;20053;-62
2021/08/20 00:20:27;;;;;;;7.97;2.45;;;;;;;18.18;61.88;101171.28;5053339;28;20053;-62
2021/08/20 00:22:55;;;;;;;7.00;2.95;;;;;;;18.11;62.27;101165.50;5053751;28;20057;-71
2021/08/20 00:25:23;;;;;;;4.75;2.60;;;;;;;18.34;61.52;101172.94;5053524;28;20068;-70
2021/08/20 00:27:50;;;;;;;5.70;2.88;;;;;;;18.30;61.49;101171.25;5053291;28;20045;-62
2021/08/20 00:30:17;;;;;;;4.53;2.88;;;;;;;18.30;61.31;101176.81;5053607;28;20053;-70
2021/08/20 00:32:44;;;;;;;6.75;2.72;;;;;;;18.21;61.68;101167.78;5053449;28;20045;-63
2021/08/20 00:35:12;;;;;;;4.65;2.70;;;;;;;18.21;61.63;101168.59;5051647;28;20061;-70
2021/08/20 00:37:40;;;;;;;5.43;2.95;;;;;;;18.10;62.14;101172.25;5053014;28;20041;-62
2021/08/20 00:40:08;;;;;;;5.28;2.67;;;;;;;18.30;61.66;101162.88;5053046;28;20053;-70
2021/08/20 00:42:35;;;;;;;5.50;3.22;;;;;;;18.04;62.56;101163.31;5056774;28;20060;-70
2021/08/20 00:45:06;;;;;;;5.15;2.92;;;;;;;18.24;61.95;101172.63;5055577;28;20056;-69
2021/08/20 00:47:33;;;;;;;5.88;3.00;;;;;;;18.02;62.56;101167.59;5055377;28;20056;-61
2021/08/20 00:50:05;;;;;;;6.10;2.97;;;;;;;18.03;62.88;101172.03;5054860;28;20049;-62
2021/08/20 00:52:33;;;;;;;5.55;2.95;;;;;;;18.16;62.56;101162.47;5038500;28;20045;-61
2021/08/20 00:55:01;;;;;;;4.90;2.70;;;;;;;18.11;62.57;101163.53;5038664;28;20057;-63
2021/08/20 00:57:29;;;;;;;6.40;2.80;;;;;;;18.02;63.03;101162.84;5055308;28;20064;-61
2021/08/20 00:59:57;;;;;;;5.30;2.90;;;;;;;17.94;63.26;101159.03;5056506;28;20065;-62
2021/08/20 01:02:24;;;;;;;4.63;2.95;;;;;;;18.11;62.97;101159.91;5056748;28;20111;-68
2021/08/20 01:04:52;;;;;;;6.68;3.10;;;;;;;18.28;62.87;101156.84;5056584;28;20052;-70
2021/08/20 01:07:21;;;;;;;5.72;3.00;;;;;;;18.20;62.79;101157.81;5039010;28;20056;-70
2021/08/20 01:09:49;;;;;;;11.93;3.15;;;;;;;18.21;63.04;101162.19;5055331;28;20056;-62
2021/08/20 01:12:16;;;;;;;7.30;2.72;;;;;;;18.17;62.69;101150.13;5054521;28;20048;-62
2021/08/20 01:14:48;;;;;;;4.05;2.17;;;;;;;18.28;62.71;101151.25;5018473;28;20057;-62
2021/08/20 01:17:16;;;;;;;6.47;2.63;;;;;;;18.38;62.47;101140.41;5035076;28;20053;-63
2021/08/20 01:19:43;;;;;;;4.95;2.97;;;;;;;18.40;62.26;101145.63;5035214;28;20049;-62
2021/08/20 01:22:10;;;;;;;6.03;2.58;;;;;;;18.43;62.27;101144.97;5035340;28;20053;-63
2021/08/20 01:24:45;;;;;;;9.20;2.97;;;;;;;18.39;62.47;101146.81;5019658;28;20049;-65
2021/08/20 01:27:16;;;;;;;4.75;2.80;;;;;;;18.03;63.67;101155.31;5034860;28;20207;-62
2021/08/20 01:29:44;;;;;;;4.10;2.92;;;;;;;18.09;63.91;101148.31;5018454;28;20057;-62
2021/08/20 01:32:11;;;;;;;6.03;2.70;;;;;;;18.29;63.06;101138.94;5036257;28;20037;-62
2021/08/20 01:34:42;;;;;;;5.75;2.83;;;;;;;18.18;63.64;101146.19;5034801;28;20049;-62
2021/08/20 01:37:09;;;;;;;4.45;2.75;;;;;;;18.36;63.41;101139.94;5035909;28;20448;-70
2021/08/20 01:39:37;;;;;;;6.72;2.78;;;;;;;18.54;62.70;101144.09;5035091;28;20049;-62
2021/08/20 01:42:05;;;;;;;8.05;2.70;;;;;;;18.66;62.25;101132.03;5018599;28;20056;-63
2021/08/20 01:44:33;;;;;;;5.45;3.10;;;;;;;18.57;62.43;101134.19;5018309;28;20057;-63
2021/08/20 01:47:00;;;;;;;4.93;2.53;;;;;;;18.37;63.06;101135.19;5036024;28;20061;-62
2021/08/20 01:49:27;;;;;;;7.00;2.83;;;;;;;18.26;63.53;101129.31;5034551;28;20358;-62
2021/08/20 01:51:55;;;;;;;4.18;2.55;;;;;;;18.47;63.08;101131.91;5034137;28;20050;-69
2021/08/20 01:54:22;;;;;;;7.10;2.80;;;;;;;18.34;63.19;101125.53;5035294;28;20052;-69
2021/08/20 01:56:49;;;;;;;5.50;2.60;;;;;;;18.63;62.93;101129.97;5035724;28;20476;-70
2021/08/20 01:59:16;;;;;;;5.40;2.63;;;;;;;18.52;63.07;101124.09;5035619;28;20060;-68
2021/08/20 02:01:44;;;;;;;4.05;2.33;;;;;;;18.36;63.45;101117.63;5034496;28;20045;-69
2021/08/20 02:04:12;;;;;;;4.13;2.50;;;;;;;18.53;63.40;101122.13;5034473;28;20689;-69
2021/08/20 02:06:40;;;;;;;6.15;2.53;;;;;;;18.42;63.74;101118.22;5034063;28;20046;-70
2021/08/20 02:09:08;;;;;;;5.60;2.78;;;;;;;18.42;63.37;101109.84;5017533;28;20053;-70
2021/08/20 02:11:37;;;;;;;4.90;2.72;;;;;;;18.35;64.03;101107.66;5018084;28;20053;-69
2021/08/20 02:14:05;;;;;;;6.15;2.72;;;;;;;18.40;64.02;101103.78;5049675;28;20049;-70
2021/08/20 02:16:36;;;;;;;4.90;2.50;;;;;;;18.27;64.31;101102.25;5054072;28;20064;-62
2021/08/20 02:19:08;;;;;;;4.43;2.60;;;;;;;18.32;63.87;101096.41;5037993;28;20048;-62
2021/08/20 02:21:35;;;;;;;9.73;2.83;;;;;;;18.46;63.75;101105.19;5053971;28;20389;-68
2021/08/20 02:24:10;;;;;;;6.00;2.83;;;;;;;18.65;63.03;101110.91;5036832;28;20057;-69
2021/08/20 02:26:37;;;;;;;5.15;2.80;;;;;;;18.34;63.80;101113.59;5037271;28;20056;-69
2021/08/20 02:29:05;;;;;;;5.25;2.60;;;;;;;17.94;65.18;101120.00;5036618;28;20532;-69
2021/08/20 02:31:33;;;;;;;9.65;2.80;;;;;;;17.98;65.30;101120.94;5053921;28;20048;-69
2021/08/20 02:34:01;;;;;;;5.90;2.72;;;;;;;18.19;64.64;101117.13;5053631;28;20041;-69
2021/08/20 02:36:29;;;;;;;7.13;2.58;;;;;;;18.25;64.42;101119.31;5037224;28;20048;-62
2021/08/20 02:38:56;;;;;;;5.35;2.72;;;;;;;18.08;65.27;101118.81;5053659;28;20055;-69
2021/08/20 02:41:29;;;;;;;9.02;2.60;;;;;;;17.93;65.72;101117.56;5054009;28;20056;-70
2021/08/20 02:43:58;;;;;;;5.35;2.58;;;;;;;18.08;65.14;101121.59;5053256;28;20053;-69
2021/08/20 02:46:29;;;;;;;6.07;2.88;;;;;;;17.48;67.06;101125.31;5053613;28;20057;-69
2021/08/20 02:48:59;;;;;;;;;;;;;;;17.53;67.41;101125.91;5053979;28;20365;-62
2021/08/20 02:51:27;;;;;;;7.35;3.30;;;;;;;17.61;66.55;101130.53;5053208;28;19928;-62
2021/08/20 02:53:58;;;;;;;8.30;3.10;;;;;;;17.66;67.05;101124.72;5053067;28;20060;-62
2021/08/20 02:56:26;;;;;;;5.25;2.92;;;;;;;17.69;66.91;101131.56;5054670;28;20061;-62
2021/08/20 02:58:58;;;;;;;6.07;2.65;;;;;;;17.85;65.98;101127.69;5053134;28;20060;-63
2021/08/20 03:01:25;;;;;;;6.05;2.60;;;;;;;17.79;66.19;101129.13;5036879;28;20049;-69
2021/08/20 03:03:54;;;;;;;4.55;2.72;;;;;;;17.70;66.64;101130.41;5036319;28;20049;-69
2021/08/20 03:06:22;;;;;;;6.65;3.05;;;;;;;17.72;67.03;101119.72;5052678;28;20049;-70
2021/08/20 03:08:49;;;;;;;5.75;2.70;;;;;;;17.93;66.21;101121.19;5054527;28;20689;-69
2021/08/20 03:11:18;;;;;;;5.55;3.00;;;;;;;17.80;66.28;101122.38;5053427;28;20052;-69
2021/08/20 03:13:45;;;;;;;6.72;2.80;;;;;;;17.95;65.81;101132.78;5041359;28;20046;-69
2021/08/20 03:16:12;;;;;;;7.97;3.17;;;;;;;18.07;65.70;101119.97;5034648;28;20412;-69
2021/08/20 03:18:42;;;;;;;;;;;;;;;18.01;65.67;101127.75;5017768;28;20521;-62
2021/08/20 03:21:14;;;;;;;7.75;2.95;;;;;;;18.12;65.66;101123.31;5033114;28;19928;-69
2021/08/20 03:23:55;;;;;;;4.60;2.63;;;;;;;18.15;65.52;101127.38;5032840;28;20065;-70
2021/08/20 03:26:25;;;;;;;5.15;2.72;;;;;;;18.21;65.32;101110.03;5032942;28;20061;-69
2021/08/20 03:28:59;;;;;;;5.95;2.88;;;;;;;18.35;64.66;101106.84;5032477;28;20061;-62
2021/08/20 03:31:27;;;;;;;5.40;2.80;;;;;;;18.55;64.39;101098.25;5032800;28;20049;-63
2021/08/20 03:33:54;;;;;;;4.03;2.50;;;;;;;18.24;64.87;101097.34;5032663;28;20068;-70
2021/08/20 03:36:23;;;;;;;7.65;2.88;;;;;;;18.26;64.97;101109.78;5032292;28;20527;-70
2021/08/20 03:38:53;;;;;;;6.18;3.00;;;;;;;18.32;65.05;101108.38;5032805;28;20056;-70
2021/08/20 03:41:23;;;;;;;7.22;2.97;;;;;;;18.45;64.50;101100.75;5032997;28;20049;-70
2021/08/20 03:44:02;;;;;;;5.32;2.60;;;;;;;18.52;64.62;101104.56;5032168;28;20049;-69
2021/08/20 03:46:33;;;;;;;5.60;3.10;;;;;;;18.69;63.88;101115.38;5032761;28;20053;-62
2021/08/20 03:49:00;;;;;;;4.68;2.80;;;;;;;18.43;64.34;101114.28;5032358;28;20049;-69
2021/08/20 03:51:29;;;;;;;7.07;2.65;;;;;;;18.25;64.87;101118.50;5015672;28;20053;-70
2021/08/20 03:53:56;;;;;;;5.35;2.60;;;;;;;18.21;64.98;101112.00;5032197;28;20053;-62
2021/08/20 03:56:24;;;;;;;7.22;2.80;;;;;;;18.35;64.86;101112.41;5015924;28;20071;-69
2021/08/20 03:59:07;;;;;;;6.15;3.22;;;;;;;18.34;64.05;101113.59;5032382;28;20426;-69
2021/08/20 04:01:35;;;;;;;4.60;2.80;;;;;;;18.38;64.43;101120.88;5032365;28;20066;-62
2021/08/20 04:04:04;;;;;;;5.32;3.05;;;;;;;18.23;65.00;101120.84;5015411;28;20048;-69
2021/08/20 04:06:49;;;;;;;5.65;2.92;;;;;;;17.91;66.01;101131.03;5016300;28;20416;-69
2021/08/20 04:09:16;;;;;;;7.40;3.30;;;;;;;18.11;65.38;101130.06;5032606;28;20056;-69
2021/08/20 04:11:52;;;;;;;4.65;2.42;;;;;;;18.31;65.08;101129.03;5032659;28;20056;-62
2021/08/20 04:14:27;;;;;;;7.07;2.58;;;;;;;18.31;65.08;101131.00;5034481;28;20049;-62
2021/08/20 04:16:54;;;;;;;6.97;2.63;;;;;;;18.34;65.07;101130.31;5051244;28;20079;-70
2021/08/20 04:19:22;;;;;;;5.97;2.80;;;;;;;18.39;64.91;101130.88;5035603;28;20045;-63
2021/08/20 04:21:49;;;;;;;6.75;3.30;;;;;;;18.51;64.97;101133.66;5052012;28;20052;-63
2021/08/20 04:24:17;;;;;;;7.18;3.00;;;;;;;18.54;64.72;101130.13;5035515;28;20049;-62
2021/08/20 04:26:47;;;;;;;4.57;2.45;;;;;;;18.46;64.59;101133.88;5051952;28;20061;-69
2021/08/20 04:29:35;;;;;;;9.15;3.38;;;;;;;18.39;65.09;101141.22;5052342;28;20076;-63
2021/08/20 04:32:19;;;;;;;7.60;2.80;;;;;;;18.37;65.19;101141.59;5037850;28;20727;-70
2021/08/20 04:34:54;;;;;;;8.18;3.45;;;;;;;18.55;64.78;101140.13;5051360;28;20049;-63
2021/08/20 04:37:46;;;;;;;7.18;2.80;;;;;;;18.66;64.27;101137.63;5051902;28;20053;-62
2021/08/20 04:40:37;;;;;;;6.93;2.80;;;;;;;18.58;64.87;101138.59;5048170;28;20060;-70
2021/08/20 04:43:19;;;;;;;5.55;2.75;;;;;;;18.60;64.37;101142.63;5051634;28;20072;-69
2021/08/20 04:46:09;;;;;;;5.78;3.20;;;;;;;18.66;63.91;101140.41;5051548;28;20056;-71
2021/08/20 04:48:56;;;;;;;9.48;3.13;;;;;;;18.55;64.22;101144.91;5051692;28;20057;-69
2021/08/20 04:51:52;;;;;;;7.05;3.20;;;;;;;18.40;64.97;101148.41;5051475;28;20061;-61
2021/08/20 04:54:27;;;;;;;8.35;3.47;;;;;;;18.38;65.46;101151.56;5051327;28;20056;-62
2021/08/20 04:56:58;;;;;;;5.00;3.08;;;;;;;18.52;65.00;101149.19;5035279;28;20060;-61
2021/08/20 04:59:25;;;;;;;5.97;2.88;;;;;;;18.56;64.68;101141.75;5034511;28;20049;-62
2021/08/20 05:01:53;;;;;;;6.35;3.10;;;;;;;18.49;65.19;101147.13;5052939;28;20057;-69
2021/08/20 05:04:20;;;;;;;5.07;3.13;;;;;;;18.77;64.23;101149.88;5052308;28;20060;-71
2021/08/20 05:06:48;;;;;;;6.50;2.83;;;;;;;18.80;64.37;101151.97;5018493;28;20053;-70
2021/08/20 05:09:15;;;;;;;5.93;2.97;;;;;;;18.56;64.84;101150.13;5052983;28;20075;-69
2021/08/20 05:11:42;;;;;;;9.60;2.95;;;;;;;18.76;64.65;101148.25;5053099;28;20056;-69
2021/08/20 05:14:09;;;;;;;10.07;3.28;;;;;;;18.57;64.84;101153.69;5035349;28;20538;-69
2021/08/20 05:16:37;;;;;;;7.88;3.30;;;;;;;18.50;65.42;101150.72;5033559;28;20058;-69
2021/08/20 05:19:04;;;;;;;6.32;3.00;;;;;;;18.80;64.60;101155.56;5033045;28;20046;-69
2021/08/20 05:21:31;;;;;;;5.38;2.97;;;;;;;18.81;64.39;101153.59;5033173;28;20045;-69
2021/08/20 05:23:58;;;;;;;7.72;3.33;;;;;;;18.71;64.89;101154.91;5032607;28;20057;-62
2021/08/20 05:26:25;;;;;;;5.90;2.85;;;;;;;18.60;64.87;101153.00;5033460;28;20048;-70
2021/08/20 05:28:53;;;;;;;5.32;2.72;;;;;;;18.71;64.99;101162.47;5035319;28;20056;-70
2021/08/20 05:31:20;;;;;;;5.25;2.97;;;;;;;18.85;64.34;101160.88;5036632;28;20057;-70
2021/08/20 05:33:47;;;;;;;5.95;3.28;;;;;;;18.80;64.75;101157.53;5036328;28;20046;-70
2021/08/20 05:36:15;;;;;;;8.35;3.40;;;;;;;18.87;64.23;101164.13;5036270;28;20055;-70
2021/08/20 05:38:42;;;;;;;7.75;3.05;;;;;;;18.93;64.01;101164.69;5036334;28;20046;-71
2021/08/20 05:41:09;;;;;;;7.70;2.72;;;;;;;18.76;64.75;101162.19;5036104;28;20049;-63
2021/08/20 05:43:37;;;;;;;5.45;3.15;;;;;;;18.81;64.82;101168.34;5034414;28;20060;-63
2021/08/20 05:46:04;;;;;;;7.00;3.00;;;;;;;18.69;65.11;101167.63;5036291;28;20052;-70
2021/08/20 05:48:31;;;;;;;9.23;3.17;;;;;;;18.84;64.67;101173.22;5034410;28;20064;-72
2021/08/20 05:50:59;;;;;;;14.13;3.70;;;;;;;18.82;64.31;101174.75;5034384;28;20049;-63
2021/08/20 05:53:27;;;;;;;10.70;3.30;;;;;;;18.39;65.75;101177.47;5034662;28;20049;-71
2021/08/20 05:55:55;;;;;;;8.40;3.00;;;;;;;18.34;66.05;101174.94;5002368;28;20060;-72
2021/08/20 05:58:23;;;;;;;5.93;3.22;;;;;;;18.60;65.53;101169.75;5034857;28;20068;-72
2021/08/20 06:00:50;;;;;;;8.48;3.08;;;;;;;18.84;64.91;101170.44;5035655;28;20049;-70
2021/08/20 06:03:23;;;;;;;7.50;3.45;;;;;;;18.38;66.09;101178.63;5016874;28;20049;-69
2021/08/20 06:05:58;;;;;;;7.45;3.33;;;;;;;18.60;65.75;101170.53;5018548;28;20053;-63
2021/08/20 06:08:28;;;;;;;6.60;3.38;;;;;;;18.64;65.86;101177.03;5018985;28;20068;-70
2021/08/20 06:10:56;;;;;;;7.45;3.10;;;;;;;18.71;65.87;101170.84;5034306;28;20404;-70
2021/08/20 06:13:23;;;;;;;6.13;3.28;;;;;;;18.67;65.35;101173.53;5044952;28;20037;-70
2021/08/20 06:15:50;;;;;;;9.02;3.22;;;;;;;18.76;65.78;101176.97;5055321;28;20045;-71
2021/08/20 06:18:17;;;;;;;8.07;3.40;;;;;;;18.99;64.56;101179.97;5054195;28;20053;-70
2021/08/20 06:20:45;;;;;;;6.82;3.17;;;;;;;19.12;64.59;101175.97;5055363;28;20141;-70
2021/08/20 06:23:12;;;;;;;6.78;3.15;;;;;;;19.04;64.62;101174.94;5055150;28;20049;-70
2021/08/20 06:25:39;;;;;;;6.45;3.67;;;;;;;19.18;64.34;101170.91;5055447;28;20049;-70
2021/08/20 06:28:07;;;;;;;8.18;3.50;;;;;;;19.01;64.56;101177.66;5055527;28;20061;-70
2021/08/20 06:30:34;;;;;;;8.85;3.45;;;;;;;19.02;64.77;101182.88;5036894;28;20052;-70
2021/08/20 06:33:01;;;;;;;15.15;3.97;;;;;;;18.88;65.65;101176.91;5055415;28;20053;-70
2021/08/20 06:35:29;;;;;;;12.45;3.90;;;;;;;19.06;65.32;101178.19;5055296;28;20053;-63
2021/08/20 06:37:56;;;;;;;10.52;3.55;;;;;;;19.18;64.73;101180.09;5055340;28;20060;-64
2021/08/20 06:40:23;;;;;;;7.18;3.25;;;;;;;19.16;65.34;101176.06;5054836;28;20064;-63
2021/08/20 06:42:50;;;;;;;6.30;3.30;;;;;;;19.17;65.13;101177.66;5055124;28;20053;-70
2021/08/20 06:45:18;;;;;;;5.10;2.85;;;;;;;19.23;64.57;101184.59;5053238;28;20056;-63
2021/08/20 06:47:45;;;;;;;7.40;3.58;;;;;;;19.09;64.97;101179.44;5036677;28;20057;-63
2021/08/20 06:50:12;;;;;;;14.98;4.10;;;;;;;19.21;64.38;101182.19;5036883;28;20048;-63
2021/08/20 06:52:40;;;;;;;20.20;4.43;;;;;;;19.13;64.58;101180.34;5054665;28;20056;-63
2021/08/20 06:55:08;;;;;;;14.48;3.88;;;;;;;19.14;64.85;101184.78;5054390;28;20052;-63
2021/08/20 06:57:35;;;;;;;11.38;3.33;;;;;;;19.28;64.83;101179.56;5036153;28;20060;-63
2021/08/20 07:00:03;;;;;;;10.45;3.72;;;;;;;19.26;64.80;101184.69;5054526;28;20124;-63
2021/08/20 07:02:31;;;;;;;14.63;3.38;;;;;;;19.41;64.58;101178.31;5054497;28;20053;-63
2021/08/20 07:04:58;;;;;;;11.27;3.92;;;;;;;19.58;64.00;101179.94;5053729;28;20384;-63
2021/08/20 07:07:29;;;;;;;13.85;3.90;;;;;;;19.53;63.76;101180.19;5053034;28;20061;-70
2021/08/20 07:09:56;;;;;;;9.95;4.05;;;;;;;19.45;64.44;101190.41;5052713;28;20061;-70
2021/08/20 07:12:23;;;;;;;13.18;5.93;;;;;;;19.43;64.44;101175.97;5053007;28;20400;-69
2021/08/20 07:14:51;;;;;;;13.13;5.22;;;;;;;19.58;64.09;101180.72;5034423;28;20049;-70
2021/08/20 07:17:18;;;;;;;11.65;3.47;;;;;;;19.41;64.60;101181.13;5034587;28;20076;-69
2021/08/20 07:19:45;;;;;;;8.63;4.03;;;;;;;19.48;64.56;101183.25;5034485;28;20057;-70
2021/08/20 07:22:13;;;;;;;8.15;3.17;;;;;;;19.40;64.43;101189.88;5034710;28;20053;-70
2021/08/20 07:24:40;;;;;;;12.45;3.38;;;;;;;19.51;64.47;101196.53;5033160;28;20038;-64
2021/08/20 07:27:10;;;;;;;9.30;4.65;;;;;;;19.52;64.09;101192.56;5033162;28;20049;-63
2021/08/20 07:29:37;;;;;;;8.60;3.70;;;;;;;19.43;64.72;101192.75;5034224;28;20393;-63
2021/08/20 07:32:05;;;;;;;10.13;3.70;;;;;;;19.49;64.37;101196.88;5034055;28;20042;-63
2021/08/20 07:34:32;;;;;;;9.18;3.53;;;;;;;19.64;64.11;101198.84;5015717;28;20133;-63
2021/08/20 07:37:00;;;;;;;17.08;4.45;;;;;;;19.72;63.89;101195.03;5032226;28;20045;-63
2021/08/20 07:39:27;;;;;;;12.77;4.43;;;;;;;19.69;63.66;101189.38;5032795;28;20052;-63
2021/08/20 07:41:54;;;;;;;8.30;3.50;;;;;;;19.67;64.00;101202.88;5034032;28;20053;-63
2021/08/20 07:44:21;;;;;;;14.05;3.90;;;;;;;19.45;64.15;101200.75;5033454;28;20053;-65
2021/08/20 07:46:49;;;;;;;13.50;4.30;;;;;;;19.66;63.57;101206.88;5033936;28;20053;-63
2021/08/20 07:49:16;;;;;;;9.82;3.88;;;;;;;19.74;63.43;101203.88;5033841;28;20057;-63
2021/08/20 07:51:43;;;;;;;11.98;3.72;;;;;;;19.84;63.41;101205.31;5032146;28;20060;-63
2021/08/20 07:54:11;;;;;;;9.40;3.75;;;;;;;19.82;63.26;101205.66;5034097;28;20049;-64
2021/08/20 07:56:38;;;;;;;10.13;4.30;;;;;;;20.00;62.88;101204.09;5033878;28;20049;-63
2021/08/20 07:59:05;;;;;;;14.13;5.30;;;;;;;19.82;63.17;101210.47;5033550;28;20159;-63
2021/08/20 08:01:33;;;;;;;13.18;3.67;;;;;;;20.03;62.82;101208.94;5033956;28;20053;-64
2021/08/20 08:04:01;;;;;;;20.05;4.00;;;;;;;20.00;62.36;101215.28;5032368;28;20057;-63
2021/08/20 08:06:28;;;;;;;10.82;3.50;;;;;;;19.92;62.54;101210.72;5031703;28;20057;-63
2021/08/20 08:08:58;;;;;;;13.20;3.57;;;;;;;20.07;62.64;101215.44;5031917;28;20433;-63
2021/08/20 08:11:30;;;;;;;15.43;4.35;;;;;;;19.83;63.14;101217.66;5015819;28;20786;-62
2021/08/20 08:14:06;;;;;;;11.07;3.70;;;;;;;19.79;63.21;101214.78;5047765;28;20052;-63
2021/08/20 08:16:36;;;;;;;9.82;3.85;;;;;;;19.98;62.65;101217.63;5053625;28;20060;-63
2021/08/20 08:19:05;;;;;;;16.88;4.18;;;;;;;19.98;62.98;101217.63;5053354;28;20045;-63
2021/08/20 08:21:33;;;;;;;10.55;3.90;;;;;;;19.97;62.97;101218.00;5053456;28;20045;-63
2021/08/20 08:24:00;;;;;;;7.85;3.58;;;;;;;20.04;62.72;101215.38;5053202;28;20052;-62
2021/08/20 08:26:28;;;;;;;10.38;3.65;;;;;;;19.94;63.01;101227.13;5053239;28;20041;-63
2021/08/20 08:28:55;;;;;;;9.60;3.50;;;;;;;20.02;62.36;101234.50;5051572;28;20053;-62
2021/08/20 08:31:24;;;;;;;9.60;3.88;;;;;;;20.05;62.53;101225.38;5052982;28;20041;-62
2021/08/20 08:33:51;;;;;;;8.32;3.72;;;;;;;20.01;62.28;101230.88;5051371;28;20079;-63
2021/08/20 08:36:19;;;;;;;12.23;4.00;;;;;;;20.17;62.29;101232.88;5052960;28;20044;-63
2021/08/20 08:38:47;;;;;;;11.18;4.40;;;;;;;20.23;62.23;101232.22;5053241;28;20057;-63
2021/08/20 08:41:18;;;;;;;10.48;3.97;;;;;;;20.45;61.25;101231.50;5051576;28;20061;-63
2021/08/20 08:43:45;;;;;;;13.85;3.75;;;;;;;20.37;61.60;101232.53;5035232;28;20052;-62
2021/08/20 08:46:19;;;;;;;17.63;6.72;;;;;;;20.41;61.42;101244.63;5052832;28;20423;-64
2021/08/20 08:48:46;;;;;;;15.43;4.00;;;;;;;20.89;59.96;101244.00;5034605;28;20064;-63
2021/08/20 08:51:14;;;;;;;11.38;4.53;;;;;;;20.58;60.48;101241.38;5051404;28;20055;-62
2021/08/20 08:53:41;;;;;;;15.40;5.15;;;;;;;20.48;60.90;101241.16;5051735;28;20053;-64
2021/08/20 08:56:08;;;;;;;18.80;5.10;;;;;;;20.49;61.06;101232.38;5051628;28;20060;-63
2021/08/20 08:58:37;;;;;;;14.50;4.88;;;;;;;20.48;61.50;101241.16;5052756;28;20053;-63
2021/08/20 09:01:30;;;;;;;13.00;4.53;;;;;;;20.65;60.25;101233.13;5052651;28;20055;-63
2021/08/20 09:04:10;;;;;;;15.18;4.60;;;;;;;20.71;60.50;101234.44;5055380;28;20045;-62
2021/08/20 09:06:40;;;;;;;11.60;4.45;;;;;;;20.61;61.05;101242.63;5056375;28;20045;-62
2021/08/20 09:09:10;;;;;;;13.43;4.33;;;;;;;20.64;60.85;101236.31;5056721;28;20045;-63
2021/08/20 09:11:37;;;;;;;11.77;4.35;;;;;;;20.67;60.91;101239.16;5056413;28;20053;-63
2021/08/20 09:14:06;;;;;;;12.82;3.50;;;;;;;20.76;60.68;101236.16;5039245;28;20053;-63
2021/08/20 09:16:54;;;;;;;14.93;3.70;;;;;;;20.85;60.13;101239.53;5034851;28;20049;-63
2021/08/20 09:19:22;;;;;;;10.82;3.78;;;;;;;21.11;59.30;101236.88;5036012;28;20053;-63
2021/08/20 09:21:56;;;;;;;10.95;3.88;;;;;;;20.83;59.97;101236.28;5036369;28;20049;-63
2021/08/20 09:24:41;;;;;;;10.82;4.03;;;;;;;20.70;59.72;101241.22;5036423;28;20049;-62
2021/08/20 09:27:27;;;;;;;8.00;3.53;;;;;;;20.80;58.82;101226.63;5034824;28;20053;-63
2021/08/20 09:30:02;;;;;;;8.60;3.75;;;;;;;20.94;59.13;101228.88;5035653;28;20053;-63
2021/08/20 09:32:30;;;;;;;10.52;3.60;;;;;;;21.26;58.29;101230.34;5017883;28;20530;-63
2021/08/20 09:34:58;;;;;;;13.90;4.63;;;;;;;20.96;58.62;101221.75;5034067;28;20598;-71
2021/08/20 09:37:27;;;;;;;10.77;3.72;;;;;;;21.16;58.00;101220.56;5034704;28;20056;-63
2021/08/20 09:40:02;;;;;;;8.35;3.35;;;;;;;21.46;57.48;101220.69;5035720;28;20053;-63
2021/08/20 09:42:29;;;;;;;15.02;3.83;;;;;;;21.33;57.39;101224.84;5035953;28;20073;-63
2021/08/20 09:45:17;;;;;;;12.20;3.25;;;;;;;21.33;57.59;101224.84;5034353;28;20049;-63
2021/08/20 09:47:50;;;;;;;12.05;3.75;;;;;;;21.46;56.98;101226.31;5034643;28;20041;-63
2021/08/20 09:50:20;;;;;;;7.65;3.10;;;;;;;21.63;56.83;101220.19;5035566;28;20065;-63
2021/08/20 09:52:48;;;;;;;10.82;3.28;;;;;;;21.79;56.16;101226.47;5034415;28;20064;-63
2021/08/20 09:55:36;;;;;;;10.07;3.40;;;;;;;21.65;55.86;101226.22;5034445;28;20045;-63
2021/08/20 09:58:07;;;;;;;7.68;3.08;;;;;;;21.82;55.25;101225.72;5035832;28;20385;-70
2021/08/20 10:00:35;;;;;;;7.80;2.97;;;;;;;21.73;55.68;101230.75;5034025;28;20058;-71
2021/08/20 10:03:05;;;;;;;11.57;2.88;;;;;;;21.98;55.08;101231.16;5034196;28;20060;-71
2021/08/20 10:05:34;;;;;;;9.30;2.50;;;;;;;22.06;54.65;101230.91;5034139;28;20068;-71
2021/08/20 10:08:01;;;;;;;6.65;2.78;;;;;;;21.91;55.02;101229.06;5035462;28;20045;-71
2021/08/20 10:10:29;;;;;;;11.80;2.90;;;;;;;22.19;55.27;101226.66;5035602;28;20058;-72
2021/08/20 10:12:57;;;;;;;8.38;2.80;;;;;;;21.91;55.05;101229.06;5041208;28;20063;-71
2021/08/20 10:15:25;;;;;;;11.55;3.42;;;;;;;22.13;54.82;101235.78;5053801;28;20048;-64
2021/08/20 10:17:53;;;;;;;8.48;3.20;;;;;;;22.44;54.58;101234.63;5055270;28;20083;-63
2021/08/20 10:20:22;;;;;;;7.65;3.22;;;;;;;22.49;54.53;101232.28;5054210;28;20053;-64
2021/08/20 10:22:49;;;;;;;10.68;3.10;;;;;;;22.47;53.99;101237.50;5020987;28;20057;-64
2021/08/20 10:25:17;;;;;;;15.35;3.45;;;;;;;22.63;53.28;101238.13;5055190;28;20456;-64
2021/08/20 10:27:44;;;;;;;8.68;3.22;;;;;;;22.54;53.69;101236.78;5055044;28;20056;-71
2021/08/20 10:30:12;;;;;;;11.63;3.00;;;;;;;22.71;53.27;101233.41;5053688;28;20397;-71
2021/08/20 10:33:01;;;;;;;10.05;2.63;;;;;;;22.70;53.15;101234.59;5055129;28;20052;-71
2021/08/20 10:35:51;;;;;;;10.35;3.30;;;;;;;22.62;53.72;101238.50;5055268;28;20047;-71
2021/08/20 10:38:25;;;;;;;5.72;2.95;;;;;;;22.63;53.34;101235.31;5053602;28;20540;-70
2021/08/20 10:41:06;;;;;;;11.88;2.47;;;;;;;22.82;52.70;101239.97;5054781;28;20048;-71
2021/08/20 10:43:53;;;;;;;13.48;5.25;;;;;;;22.99;51.59;101233.72;5053656;28;20049;-70
2021/08/20 10:46:33;;;;;;;13.55;4.53;;;;;;;23.25;51.73;101234.41;5055278;28;20048;-71
2021/08/20 10:49:21;;;;;;;9.35;3.75;;;;;;;22.94;52.45;101234.09;5053779;28;20511;-71
2021/08/20 10:54:31;;;;;;;;;;;;;;;23.04;51.26;101224.94;5054057;28;20389;-63
2021/08/20 10:56:58;;;;;;;5.20;2.67;;;;;;;23.28;50.20;101216.00;5052353;28;19931;-64
2021/08/20 10:59:43;;;;;;;5.35;2.42;;;;;;;23.40;49.16;101215.69;5054434;28;20090;-63
2021/08/20 11:02:20;;;;;;;7.47;2.58;;;;;;;23.24;49.99;101220.75;5054579;28;20400;-63
2021/08/20 11:04:59;;;;;;;9.90;2.50;;;;;;;23.27;49.61;101222.78;5054306;28;20056;-63
2021/08/20 11:07:33;;;;;;;5.78;2.28;;;;;;;23.32;48.87;101208.41;5052912;28;20049;-72
2021/08/20 11:10:21;;;;;;;8.50;2.10;;;;;;;23.37;47.92;101208.88;5056033;28;20045;-71
2021/08/20 11:12:51;;;;;;;6.50;2.55;;;;;;;23.33;48.25;101215.63;5043929;28;20065;-71
2021/08/20 11:17:58;;;;;;;8.27;2.90;;;;;;;23.69;47.92;101220.38;5035385;28;20015;-71
2021/08/20 11:20:35;;;;;;;3.33;2.00;;;;;;;24.00;46.64;101216.19;5034967;28;20057;-71
2021/08/20 11:23:12;;;;;;;4.78;2.15;;;;;;;23.64;46.09;101215.09;5034550;28;20049;-64
2021/08/20 11:25:57;;;;;;;6.75;2.00;;;;;;;23.49;47.07;101209.75;5033476;28;20053;-64
2021/08/20 11:28:33;;;;;;;3.60;2.00;;;;;;;23.41;47.11;101211.72;5032759;28;20056;-63
2021/08/20 11:31:10;;;;;;;4.38;1.88;;;;;;;23.58;46.89;101210.22;5033914;28;20049;-63
2021/08/20 11:33:39;;;;;;;4.05;1.98;;;;;;;23.42;46.77;101208.50;5032362;28;20524;-63
2021/08/20 11:36:12;;;;;;;3.80;1.60;;;;;;;23.15;46.97;101217.44;5032969;28;20065;-64
2021/08/20 11:38:42;;;;;;;5.28;2.08;;;;;;;23.14;47.40;101218.63;5034085;28;20049;-63
2021/08/20 11:41:20;;;;;;;5.10;1.95;;;;;;;23.14;47.41;101222.25;5034125;28;20060;-63
2021/08/20 11:43:56;;;;;;;4.70;1.73;;;;;;;23.31;47.10;101212.41;5032808;28;20060;-63